Time;durP1;ratioP1;P1;durP2;ratioP2;P2;SDS_P1;SDS_P2;PMS_P1;PMS_P2;Temp;Humidity;BMP_temperature;BMP_pressure;BME280_temperature;BME280_humidity;BME280_pressure;Samples;Min_cycle;Max_cycle;Signal;HPM_P1;HPM_P2
2021/04/08 00:01:15;;;;;;;12.18;4.53;;;2.60;99.90;;;;;;4964095;28;20704;-76
2021/04/08 00:03:42;;;;;;;4.63;3.58;;;2.70;99.90;;;;;;4956823;28;20219;-76
2021/04/08 00:06:10;;;;;;;6.55;4.70;;;2.70;99.90;;;;;;4973485;28;20346;-76
2021/04/08 00:08:36;;;;;;;8.43;4.80;;;2.70;99.90;;;;;;4944695;29;20279;-76
2021/04/08 00:11:03;;;;;;;7.47;3.85;;;2.70;99.90;;;;;;4958570;28;20231;-76
2021/04/08 00:13:29;;;;;;;6.03;4.00;;;2.70;99.90;;;;;;4973968;28;20208;-76
2021/04/08 00:15:56;;;;;;;5.88;3.80;;;2.70;99.90;;;;;;4958044;28;20227;-76
2021/04/08 00:18:22;;;;;;;6.90;4.45;;;2.70;99.90;;;;;;4957069;28;20270;-76
2021/04/08 00:20:49;;;;;;;3.90;3.38;;;2.80;99.90;;;;;;4973752;28;20223;-76
2021/04/08 00:23:15;;;;;;;6.22;4.35;;;2.80;99.90;;;;;;4956174;28;20183;-76
2021/04/08 00:25:42;;;;;;;8.40;4.15;;;2.80;99.90;;;;;;4973197;28;20233;-76
2021/04/08 00:28:08;;;;;;;7.82;4.65;;;2.80;99.90;;;;;;4973941;28;20183;-76
2021/04/08 00:30:42;;;;;;;10.13;4.43;;;2.70;99.90;;;;;;4952497;28;20226;-76
2021/04/08 00:33:14;;;;;;;7.25;4.95;;;2.80;99.90;;;;;;4958429;28;20541;-76
2021/04/08 00:35:41;;;;;;;5.90;4.00;;;2.90;99.90;;;;;;4956096;28;20223;-76
2021/04/08 00:38:09;;;;;;;8.35;5.50;;;2.90;99.90;;;;;;4953268;28;20187;-76
2021/04/08 00:40:36;;;;;;;5.53;4.93;;;2.90;99.90;;;;;;4939575;28;20219;-76
2021/04/08 00:43:03;;;;;;;9.52;4.88;;;2.90;99.90;;;;;;4973594;28;20293;-76
2021/04/08 00:45:31;;;;;;;11.57;5.55;;;2.80;99.90;;;;;;4952090;28;20275;-76
2021/04/08 00:48:02;;;;;;;8.30;5.20;;;2.80;99.90;;;;;;4956623;28;20187;-76
2021/04/08 00:50:29;;;;;;;8.35;4.93;;;2.80;99.90;;;;;;4955653;28;20234;-76
2021/04/08 00:52:58;;;;;;;10.63;5.07;;;2.90;99.90;;;;;;4954475;28;20199;-76
2021/04/08 00:55:28;;;;;;;12.13;5.18;;;2.90;99.90;;;;;;4972887;28;20255;-76
2021/04/08 00:57:56;;;;;;;5.00;4.40;;;2.80;99.90;;;;;;4972740;28;20348;-76
2021/04/08 01:00:25;;;;;;;6.75;4.75;;;2.80;99.90;;;;;;4960599;28;20278;-76
2021/04/08 01:02:51;;;;;;;10.82;4.90;;;2.90;99.90;;;;;;4935145;28;20215;-76
2021/04/08 01:05:18;;;;;;;6.47;5.07;;;2.80;99.90;;;;;;4972663;28;20229;-76
2021/04/08 01:07:45;;;;;;;10.40;5.22;;;2.90;99.90;;;;;;4952623;28;20180;-76
2021/04/08 01:10:12;;;;;;;9.32;4.80;;;2.90;99.90;;;;;;4972604;28;20805;-76
2021/04/08 01:12:39;;;;;;;7.35;4.85;;;2.90;99.90;;;;;;4973119;28;20227;-76
2021/04/08 01:15:08;;;;;;;9.98;4.47;;;2.90;99.90;;;;;;4951274;28;20232;-76
2021/04/08 01:18:02;;;;;;;11.55;4.65;;;2.90;99.90;;;;;;4951177;28;20249;-76
2021/04/08 01:20:46;;;;;;;6.10;4.18;;;2.90;99.90;;;;;;4959892;28;20292;-76
2021/04/08 01:23:34;;;;;;;6.45;4.78;;;2.90;99.90;;;;;;4954979;28;20763;-76
2021/04/08 01:26:26;;;;;;;13.50;4.63;;;2.80;99.90;;;;;;4954614;28;20693;-76
2021/04/08 01:29:21;;;;;;;6.55;4.55;;;2.90;99.90;;;;;;4972536;28;20179;-76
2021/04/08 01:31:51;;;;;;;5.22;4.30;;;2.90;99.90;;;;;;4933535;28;20282;-76
2021/04/08 01:34:21;;;;;;;8.57;4.82;;;2.80;99.90;;;;;;4954617;28;20191;-76
2021/04/08 01:36:54;;;;;;;8.93;4.28;;;2.80;99.90;;;;;;4972615;28;20613;-76
2021/04/08 01:39:22;;;;;;;13.40;5.40;;;2.80;99.90;;;;;;4964931;28;20246;-76
2021/04/08 01:41:50;;;;;;;7.63;4.22;;;2.90;99.90;;;;;;4972521;28;20270;-76
2021/04/08 01:44:20;;;;;;;9.63;4.20;;;2.80;99.90;;;;;;4968614;28;20176;-76
2021/04/08 01:46:52;;;;;;;10.18;5.10;;;2.80;99.90;;;;;;4950756;28;20214;-76
2021/04/08 01:49:21;;;;;;;7.40;4.30;;;2.80;99.90;;;;;;4954581;28;20187;-76
2021/04/08 01:51:52;;;;;;;10.23;4.28;;;2.80;99.90;;;;;;4955227;28;20219;-76
2021/04/08 01:54:19;;;;;;;14.13;4.47;;;2.80;99.90;;;;;;4972305;28;20194;-76
2021/04/08 01:56:48;;;;;;;8.50;4.30;;;2.80;99.90;;;;;;4955601;28;20234;-76
2021/04/08 01:59:15;;;;;;;6.55;4.35;;;2.80;99.90;;;;;;4970776;28;20326;-76
2021/04/08 02:01:43;;;;;;;10.35;4.20;;;2.80;99.90;;;;;;4972461;28;20234;-76
2021/04/08 02:04:12;;;;;;;6.75;4.45;;;2.80;99.90;;;;;;4972116;28;20661;-76
2021/04/08 02:06:42;;;;;;;11.77;4.70;;;2.80;99.90;;;;;;4971820;28;20227;-76
2021/04/08 02:09:09;;;;;;;9.38;4.25;;;2.80;99.90;;;;;;4954223;28;20186;-76
2021/04/08 02:11:39;;;;;;;6.00;4.07;;;2.80;99.90;;;;;;4954834;28;20266;-76
2021/04/08 02:14:08;;;;;;;8.35;3.80;;;2.90;99.90;;;;;;4952905;28;20213;-76
2021/04/08 02:16:36;;;;;;;9.45;4.68;;;2.80;99.90;;;;;;4943949;28;20316;-76
2021/04/08 02:19:06;;;;;;;6.90;3.90;;;2.80;99.90;;;;;;4954244;28;20203;-76
2021/04/08 02:21:33;;;;;;;7.57;4.95;;;2.80;99.90;;;;;;4954588;28;20219;-76
2021/04/08 02:24:01;;;;;;;11.00;5.13;;;2.90;99.90;;;;;;4951629;28;20180;-75
2021/04/08 02:26:28;;;;;;;8.38;4.65;;;2.90;99.90;;;;;;4939785;28;20211;-76
2021/04/08 02:28:58;;;;;;;6.40;4.22;;;2.80;99.90;;;;;;4971265;28;20179;-76
2021/04/08 02:31:25;;;;;;;8.18;5.10;;;2.80;99.90;;;;;;4956190;28;20222;-76
2021/04/08 02:33:52;;;;;;;10.02;4.82;;;2.80;99.90;;;;;;4972584;28;20188;-76
2021/04/08 02:36:18;;;;;;;12.20;6.13;;;2.80;99.90;;;;;;4970832;28;20298;-76
2021/04/08 02:38:45;;;;;;;8.98;5.65;;;2.80;99.90;;;;;;4971338;28;20289;-76
2021/04/08 02:41:12;;;;;;;8.65;4.88;;;2.80;99.90;;;;;;4970997;28;20259;-76
2021/04/08 02:43:39;;;;;;;10.30;5.53;;;2.70;99.90;;;;;;4955157;28;20593;-76
2021/04/08 02:46:06;;;;;;;11.25;5.93;;;2.80;99.90;;;;;;4953314;28;20231;-76
2021/04/08 02:48:33;;;;;;;11.02;6.18;;;2.70;99.90;;;;;;4961086;28;20238;-76
2021/04/08 02:51:14;;;;;;;6.30;5.45;;;2.70;99.90;;;;;;4954015;28;20226;-76
2021/04/08 02:54:17;;;;;;;10.35;5.93;;;2.80;99.90;;;;;;4953411;28;20211;-76
2021/04/08 02:56:48;;;;;;;8.88;5.25;;;2.70;99.90;;;;;;4954292;28;20219;-76
2021/04/08 02:59:29;;;;;;;9.27;6.03;;;2.80;99.90;;;;;;4951458;28;20247;-76
2021/04/08 03:02:10;;;;;;;10.32;5.85;;;2.70;99.90;;;;;;4952622;28;20235;-76
2021/04/08 03:04:41;;;;;;;10.45;7.10;;;2.70;99.90;;;;;;4973678;28;20258;-76
2021/04/08 03:07:10;;;;;;;7.65;6.43;;;2.70;99.90;;;;;;4975477;28;20262;-76
2021/04/08 03:09:39;;;;;;;8.02;5.75;;;2.70;99.90;;;;;;4954222;28;20274;-76
2021/04/08 03:12:13;;;;;;;7.30;5.28;;;2.70;99.90;;;;;;4975226;28;20277;-76
2021/04/08 03:14:43;;;;;;;9.25;5.63;;;2.70;99.90;;;;;;4968676;28;20613;-76
2021/04/08 03:17:13;;;;;;;8.30;5.50;;;2.70;99.90;;;;;;4949607;28;20218;-76
2021/04/08 03:19:42;;;;;;;14.15;5.75;;;2.60;99.90;;;;;;4974505;28;20692;-76
2021/04/08 03:22:09;;;;;;;8.85;6.03;;;2.70;99.90;;;;;;4956443;28;20220;-76
2021/04/08 03:24:38;;;;;;;8.05;6.40;;;2.70;99.90;;;;;;4960376;28;20211;-76
2021/04/08 03:27:06;;;;;;;12.50;7.10;;;2.70;99.90;;;;;;4955647;29;20627;-75
2021/04/08 03:29:33;;;;;;;10.45;6.18;;;2.70;99.90;;;;;;4972519;28;20187;-75
2021/04/08 03:32:01;;;;;;;10.07;7.13;;;2.70;99.90;;;;;;4957771;28;20589;-75
2021/04/08 03:34:28;;;;;;;14.23;7.07;;;2.60;99.90;;;;;;4956987;28;20219;-76
2021/04/08 03:36:55;;;;;;;9.75;6.88;;;2.60;99.90;;;;;;4974797;28;20299;-76
2021/04/08 03:39:22;;;;;;;7.78;5.60;;;2.60;99.90;;;;;;4954873;28;20589;-76
2021/04/08 03:41:50;;;;;;;11.25;6.03;;;2.60;99.90;;;;;;4974255;28;20219;-75
2021/04/08 03:44:17;;;;;;;7.60;5.93;;;2.60;99.90;;;;;;4970755;28;20246;-75
2021/04/08 03:46:46;;;;;;;8.27;6.15;;;2.60;99.90;;;;;;4946630;28;20621;-75
2021/04/08 03:49:15;;;;;;;10.48;6.72;;;2.60;99.90;;;;;;4974795;28;20593;-75
2021/04/08 03:51:44;;;;;;;9.95;6.95;;;2.50;99.90;;;;;;4973904;28;20252;-75
2021/04/08 03:54:13;;;;;;;8.77;5.95;;;2.50;99.90;;;;;;4974474;28;20221;-75
2021/04/08 03:56:44;;;;;;;10.55;6.45;;;2.50;99.90;;;;;;4973605;28;20289;-76
2021/04/08 03:59:11;;;;;;;7.63;6.10;;;2.50;99.90;;;;;;4965966;28;20250;-76
2021/04/08 04:01:39;;;;;;;9.02;5.43;;;2.50;99.90;;;;;;4973445;28;20223;-76
2021/04/08 04:04:08;;;;;;;9.65;6.22;;;2.40;99.90;;;;;;4956953;28;20211;-76
2021/04/08 04:06:37;;;;;;;11.15;5.82;;;2.40;99.90;;;;;;4973769;28;20625;-76
2021/04/08 04:09:04;;;;;;;7.90;6.05;;;2.50;99.90;;;;;;4972406;28;20218;-76
2021/04/08 04:11:32;;;;;;;9.45;6.65;;;2.50;99.90;;;;;;4973857;28;20231;-76
2021/04/08 04:14:00;;;;;;;13.52;6.80;;;2.40;99.90;;;;;;4973182;28;20211;-76
2021/04/08 04:16:29;;;;;;;10.05;5.90;;;2.40;99.90;;;;;;4945061;28;20239;-76
2021/04/08 04:18:56;;;;;;;8.73;6.07;;;2.40;99.90;;;;;;4974078;28;20219;-76
2021/04/08 04:21:23;;;;;;;8.07;6.75;;;2.40;99.90;;;;;;4973556;28;20246;-76
2021/04/08 04:23:49;;;;;;;11.95;6.68;;;2.40;99.90;;;;;;4954077;28;20586;-76
2021/04/08 04:26:16;;;;;;;13.95;6.55;;;2.40;99.90;;;;;;4956053;28;20231;-76
2021/04/08 04:28:42;;;;;;;12.60;6.57;;;2.30;99.90;;;;;;4956368;28;20681;-76
2021/04/08 04:31:09;;;;;;;7.68;5.40;;;2.30;99.90;;;;;;4972274;28;20697;-76
2021/04/08 04:33:37;;;;;;;11.75;6.10;;;2.30;99.90;;;;;;4973646;28;20217;-76
2021/04/08 04:36:05;;;;;;;13.52;6.35;;;2.30;99.90;;;;;;4973454;28;20231;-76
2021/04/08 04:38:31;;;;;;;8.25;6.03;;;2.20;99.90;;;;;;4936385;28;20262;-76
2021/04/08 04:40:58;;;;;;;8.48;6.20;;;2.20;99.90;;;;;;4955881;28;20242;-76
2021/04/08 04:43:24;;;;;;;7.40;6.35;;;2.20;99.90;;;;;;4973174;28;20276;-76
2021/04/08 04:45:51;;;;;;;10.63;6.32;;;2.20;99.90;;;;;;4957113;28;20234;-76
2021/04/08 04:48:17;;;;;;;9.45;6.60;;;2.20;99.90;;;;;;4951207;28;20299;-76
2021/04/08 04:50:44;;;;;;;7.88;5.75;;;2.10;99.90;;;;;;4964769;28;20223;-76
2021/04/08 04:53:11;;;;;;;11.48;6.20;;;2.00;99.90;;;;;;4967469;28;20200;-76
2021/04/08 04:55:37;;;;;;;11.35;6.32;;;2.20;99.90;;;;;;4972037;28;20286;-76
2021/04/08 04:58:04;;;;;;;10.63;6.00;;;2.10;99.90;;;;;;4956028;28;20192;-76
2021/04/08 05:00:30;;;;;;;9.50;5.95;;;2.10;99.90;;;;;;4954576;28;20587;-76
2021/04/08 05:02:57;;;;;;;11.60;6.40;;;2.20;99.90;;;;;;4956009;28;20261;-76
2021/04/08 05:05:23;;;;;;;9.90;6.15;;;2.10;99.90;;;;;;4955462;28;20223;-76
2021/04/08 05:07:50;;;;;;;8.88;7.25;;;2.10;99.90;;;;;;4954441;28;20585;-75
2021/04/08 05:10:17;;;;;;;7.35;6.63;;;2.10;99.90;;;;;;4955472;28;20219;-75
2021/04/08 05:12:44;;;;;;;7.72;6.03;;;2.10;99.90;;;;;;4972943;28;20554;-76
2021/04/08 05:15:11;;;;;;;11.38;6.43;;;2.20;99.90;;;;;;4953224;28;20235;-76
2021/04/08 05:17:37;;;;;;;15.73;7.85;;;2.10;99.90;;;;;;4957614;28;20286;-76
2021/04/08 05:20:05;;;;;;;10.57;6.72;;;2.20;99.90;;;;;;4972184;28;20707;-76
2021/04/08 05:22:32;;;;;;;7.30;5.82;;;2.20;99.90;;;;;;4953869;29;20216;-76
2021/04/08 05:25:01;;;;;;;8.52;6.32;;;2.20;99.90;;;;;;4953453;28;20701;-76
2021/04/08 05:27:27;;;;;;;8.05;6.10;;;2.20;99.90;;;;;;4972151;28;20570;-76
2021/04/08 05:29:55;;;;;;;17.50;7.05;;;2.30;99.90;;;;;;4965709;28;20626;-76
2021/04/08 05:32:22;;;;;;;6.05;5.38;;;2.30;99.90;;;;;;4973144;28;20211;-76
2021/04/08 05:34:50;;;;;;;7.68;6.60;;;2.40;99.90;;;;;;4954736;28;20225;-76
2021/04/08 05:37:17;;;;;;;10.82;6.45;;;2.40;99.90;;;;;;4955700;28;20297;-76
2021/04/08 05:39:44;;;;;;;8.85;6.20;;;2.40;99.90;;;;;;4949567;28;20226;-76
2021/04/08 05:42:11;;;;;;;10.68;6.85;;;2.50;99.90;;;;;;4936716;29;20219;-76
2021/04/08 05:44:37;;;;;;;8.10;6.70;;;2.50;99.90;;;;;;4945632;28;20231;-76
2021/04/08 05:47:04;;;;;;;9.98;6.07;;;2.60;99.90;;;;;;4956187;28;20693;-76
2021/04/08 05:49:31;;;;;;;12.95;6.35;;;2.70;99.90;;;;;;4971653;28;20207;-76
2021/04/08 05:51:57;;;;;;;9.40;6.88;;;2.80;99.90;;;;;;4955044;28;20605;-76
2021/04/08 05:54:24;;;;;;;10.45;6.38;;;2.90;99.90;;;;;;4954837;28;20211;-76
2021/04/08 05:56:51;;;;;;;9.93;6.35;;;3.00;99.90;;;;;;4971251;28;20257;-76
2021/04/08 05:59:18;;;;;;;10.23;6.63;;;3.10;99.90;;;;;;4968486;28;20188;-76
2021/04/08 06:01:44;;;;;;;6.75;5.60;;;3.20;99.90;;;;;;4972303;28;20226;-76
2021/04/08 06:04:11;;;;;;;8.05;5.80;;;3.20;99.90;;;;;;4954842;28;20198;-76
2021/04/08 06:06:38;;;;;;;8.82;6.22;;;3.20;99.90;;;;;;4954510;28;20227;-76
2021/04/08 06:09:05;;;;;;;8.68;6.45;;;3.20;99.90;;;;;;4951473;28;20654;-76
2021/04/08 06:11:32;;;;;;;7.75;5.40;;;3.10;99.90;;;;;;4935604;28;20223;-76
2021/04/08 06:13:58;;;;;;;8.48;5.95;;;3.00;99.90;;;;;;4966523;28;20286;-76
2021/04/08 06:16:28;;;;;;;11.15;6.47;;;3.10;99.90;;;;;;4970620;28;20306;-76
2021/04/08 06:18:54;;;;;;;9.75;5.93;;;3.20;99.90;;;;;;4939301;28;20476;-76
2021/04/08 06:21:25;;;;;;;8.60;5.50;;;3.10;99.90;;;;;;4971013;28;20225;-76
2021/04/08 06:23:52;;;;;;;7.30;5.70;;;3.20;99.90;;;;;;4964966;28;20315;-76
2021/04/08 06:26:19;;;;;;;12.32;5.63;;;3.20;99.90;;;;;;4963686;28;20585;-76
2021/04/08 06:28:47;;;;;;;6.35;5.75;;;3.20;99.90;;;;;;4972216;28;20195;-76
2021/04/08 06:31:13;;;;;;;9.35;5.57;;;3.20;99.90;;;;;;4953900;28;20278;-76
2021/04/08 06:33:40;;;;;;;12.48;5.97;;;3.20;99.90;;;;;;4972317;28;20553;-76
2021/04/08 06:36:09;;;;;;;8.93;5.97;;;3.30;99.90;;;;;;4952337;28;20574;-76
2021/04/08 06:38:36;;;;;;;9.30;5.97;;;3.30;99.90;;;;;;4946086;28;20195;-76
2021/04/08 06:41:02;;;;;;;8.00;5.13;;;3.40;99.90;;;;;;4956239;28;20231;-76
2021/04/08 06:43:32;;;;;;;9.40;5.25;;;3.40;99.90;;;;;;4964317;28;20211;-76
2021/04/08 06:46:00;;;;;;;9.00;6.18;;;3.50;99.90;;;;;;4956837;28;20278;-76
2021/04/08 06:48:43;;;;;;;9.27;6.78;;;3.50;99.90;;;;;;4958790;28;20199;-77
2021/04/08 06:51:13;;;;;;;10.35;6.15;;;3.50;99.90;;;;;;4974593;28;20302;-77
2021/04/08 06:53:41;;;;;;;9.25;5.40;;;3.60;99.90;;;;;;4975686;28;20187;-76
2021/04/08 06:56:09;;;;;;;15.90;5.72;;;3.80;99.90;;;;;;4974233;28;20219;-76
2021/04/08 06:58:40;;;;;;;8.25;5.57;;;4.00;99.90;;;;;;4958274;28;20199;-76
2021/04/08 07:01:30;;;;;;;7.10;4.95;;;4.10;99.90;;;;;;4968777;28;20258;-76
2021/04/08 07:03:57;;;;;;;12.48;6.00;;;4.20;99.90;;;;;;4948263;28;20192;-76
2021/04/08 07:06:24;;;;;;;15.18;5.72;;;4.10;99.90;;;;;;4956746;28;20223;-76
2021/04/08 07:08:51;;;;;;;10.80;4.93;;;4.00;99.90;;;;;;4957483;28;20657;-76
2021/04/08 07:11:18;;;;;;;10.00;5.28;;;4.10;99.90;;;;;;4973765;28;20229;-76
2021/04/08 07:13:45;;;;;;;11.55;5.40;;;4.30;99.90;;;;;;4975523;28;20549;-76
2021/04/08 07:16:18;;;;;;;9.95;5.30;;;4.60;99.90;;;;;;4956479;28;20231;-76
2021/04/08 07:18:47;;;;;;;10.10;5.10;;;5.00;99.90;;;;;;4952161;28;20620;-76
2021/04/08 07:21:17;;;;;;;10.02;4.80;;;5.10;99.90;;;;;;4955306;28;20317;-76
2021/04/08 07:24:11;;;;;;;8.88;5.30;;;5.00;99.90;;;;;;4975988;28;20207;-76
2021/04/08 07:26:51;;;;;;;8.50;4.60;;;4.80;99.90;;;;;;4930556;28;20219;-76
2021/04/08 07:29:19;;;;;;;12.52;5.00;;;4.70;99.90;;;;;;4956219;28;20199;-76
2021/04/08 07:31:48;;;;;;;8.52;5.43;;;4.60;99.90;;;;;;4957756;28;20282;-76
2021/04/08 07:34:35;;;;;;;9.38;5.10;;;4.60;99.90;;;;;;4957634;28;20211;-76
2021/04/08 07:37:03;;;;;;;13.30;6.05;;;4.40;99.90;;;;;;4957191;28;20262;-76
2021/04/08 07:39:44;;;;;;;5.72;4.60;;;4.50;99.90;;;;;;4969586;28;20191;-76
2021/04/08 07:42:33;;;;;;;7.95;4.85;;;4.40;99.90;;;;;;4974816;28;20219;-76
2021/04/08 07:45:03;;;;;;;4.63;4.10;;;4.40;99.90;;;;;;4952376;28;20273;-76
2021/04/08 07:47:40;;;;;;;5.70;4.10;;;4.50;99.90;;;;;;4957441;28;20207;-76
2021/04/08 07:50:15;;;;;;;7.68;4.47;;;4.40;99.90;;;;;;4956028;28;20225;-76
2021/04/08 07:52:47;;;;;;;6.10;4.75;;;4.40;99.90;;;;;;4957397;28;20598;-76
2021/04/08 07:55:18;;;;;;;7.22;4.07;;;4.40;99.90;;;;;;4955543;28;20262;-76
2021/04/08 07:58:09;;;;;;;4.97;4.10;;;4.50;99.90;;;;;;4974168;28;20281;-75
2021/04/08 08:00:49;;;;;;;7.80;4.28;;;4.60;98.80;;;;;;4960867;28;20234;-75
2021/04/08 08:03:23;;;;;;;8.80;4.50;;;4.50;99.50;;;;;;4969835;28;20241;-75
2021/04/08 08:05:51;;;;;;;6.95;3.88;;;4.50;99.90;;;;;;4972943;28;20580;-75
2021/04/08 08:08:21;;;;;;;9.38;4.72;;;4.60;97.10;;;;;;4959322;28;20266;-75
2021/04/08 08:11:09;;;;;;;7.85;4.25;;;4.70;97.80;;;;;;4958865;28;20693;-75
2021/04/08 08:13:38;;;;;;;9.35;5.22;;;4.90;97.60;;;;;;4957026;28;20266;-75
2021/04/08 08:16:06;;;;;;;4.53;3.70;;;4.90;98.00;;;;;;4952538;28;20246;-75
2021/04/08 08:18:39;;;;;;;11.15;5.60;;;5.00;95.60;;;;;;4957129;28;20230;-75
2021/04/08 08:21:08;;;;;;;9.10;4.13;;;5.00;96.50;;;;;;4972362;28;20254;-75
2021/04/08 08:23:45;;;;;;;6.05;4.88;;;5.00;96.60;;;;;;4940012;28;20561;-75
2021/04/08 08:26:31;;;;;;;8.70;4.60;;;5.10;97.90;;;;;;4936722;28;20239;-75
2021/04/08 08:29:15;;;;;;;10.07;4.50;;;5.10;96.70;;;;;;4972401;28;20207;-76
2021/04/08 08:31:55;;;;;;;6.15;4.25;;;5.10;96.10;;;;;;4956946;28;20242;-76
2021/04/08 08:34:28;;;;;;;7.95;4.28;;;5.20;96.50;;;;;;4972736;28;20187;-75
2021/04/08 08:36:55;;;;;;;12.50;4.22;;;5.30;94.30;;;;;;4939893;28;20198;-76
2021/04/08 08:39:31;;;;;;;8.77;3.85;;;5.20;95.60;;;;;;4969819;28;20183;-76
2021/04/08 08:41:59;;;;;;;6.55;3.70;;;5.30;94.30;;;;;;4940316;28;20191;-76
2021/04/08 08:44:27;;;;;;;7.43;4.20;;;5.30;93.70;;;;;;4968699;28;20290;-76
2021/04/08 08:47:23;;;;;;;5.80;3.65;;;5.40;93.80;;;;;;4954130;28;20191;-76
2021/04/08 08:49:59;;;;;;;5.35;3.30;;;5.40;94.30;;;;;;4963028;28;20229;-76
2021/04/08 08:52:35;;;;;;;6.50;3.85;;;5.50;93.80;;;;;;4950506;28;20219;-76
2021/04/08 08:55:19;;;;;;;5.00;3.33;;;5.60;93.40;;;;;;4946554;28;20233;-76
2021/04/08 08:57:50;;;;;;;8.65;3.47;;;5.70;92.30;;;;;;4956041;28;20214;-76
2021/04/08 09:00:18;;;;;;;5.60;3.50;;;5.70;91.90;;;;;;4934279;28;20222;-76
2021/04/08 09:02:46;;;;;;;4.72;3.40;;;5.80;91.30;;;;;;4955510;28;20227;-76
2021/04/08 09:05:16;;;;;;;5.93;3.55;;;6.00;91.40;;;;;;4954637;28;20455;-76
2021/04/08 09:07:49;;;;;;;6.95;3.60;;;6.00;90.40;;;;;;4973332;28;20617;-76
2021/04/08 09:10:43;;;;;;;4.07;3.67;;;6.00;90.10;;;;;;4954025;28;20309;-76
2021/04/08 09:13:10;;;;;;;6.45;3.30;;;6.20;89.70;;;;;;4973253;28;20218;-76
2021/04/08 09:15:38;;;;;;;6.78;3.90;;;6.20;89.70;;;;;;4958988;28;20248;-76
2021/04/08 09:18:08;;;;;;;5.80;3.70;;;6.30;89.60;;;;;;4953894;28;20716;-76
2021/04/08 09:20:38;;;;;;;8.57;3.20;;;6.30;89.70;;;;;;4953397;28;20227;-76
2021/04/08 09:23:12;;;;;;;6.68;4.13;;;6.50;83.20;;;;;;4936869;29;20224;-76
2021/04/08 09:25:52;;;;;;;6.30;3.80;;;6.60;79.40;;;;;;4967530;28;20290;-76
2021/04/08 09:28:20;;;;;;;5.85;4.03;;;6.50;76.50;;;;;;4947500;28;20207;-76
2021/04/08 09:30:58;;;;;;;4.70;3.85;;;6.50;79.40;;;;;;4956955;28;20302;-76
2021/04/08 09:33:40;;;;;;;6.72;3.45;;;6.60;71.30;;;;;;4939489;28;20293;-76
2021/04/08 09:36:23;;;;;;;6.88;3.60;;;6.60;75.80;;;;;;4954257;28;20226;-76
2021/04/08 09:39:14;;;;;;;4.30;3.58;;;6.70;71.20;;;;;;4958669;28;20453;-76
2021/04/08 09:41:58;;;;;;;4.38;3.90;;;6.90;72.10;;;;;;4933902;28;20567;-76
2021/04/08 09:44:27;;;;;;;6.50;3.72;;;6.90;73.10;;;;;;4938205;28;20307;-76
2021/04/08 09:47:00;;;;;;;4.80;3.75;;;7.00;72.30;;;;;;4972360;28;20179;-76
2021/04/08 09:49:40;;;;;;;4.65;3.65;;;7.10;72.00;;;;;;4954641;28;20195;-76
2021/04/08 09:52:11;;;;;;;4.50;3.97;;;7.40;66.30;;;;;;4975608;28;20186;-76
2021/04/08 09:54:43;;;;;;;6.82;3.55;;;7.40;68.70;;;;;;4949853;28;20220;-76
2021/04/08 09:57:11;;;;;;;6.57;3.80;;;7.40;68.90;;;;;;4951010;28;20192;-76
2021/04/08 09:59:57;;;;;;;4.35;3.92;;;7.40;67.80;;;;;;4952946;28;20278;-77
2021/04/08 10:02:25;;;;;;;7.18;3.97;;;7.70;61.00;;;;;;4972436;28;20203;-76
2021/04/08 10:05:21;;;;;;;8.20;4.20;;;7.90;61.60;;;;;;4970822;28;20245;-76
2021/04/08 10:07:52;;;;;;;4.68;3.40;;;8.10;59.80;;;;;;4937636;28;20219;-76
2021/04/08 10:10:37;;;;;;;6.97;3.92;;;8.10;61.90;;;;;;4939466;28;20211;-76
2021/04/08 10:13:26;;;;;;;6.75;4.10;;;7.90;57.80;;;;;;4938411;29;20267;-76
2021/04/08 10:15:58;;;;;;;4.97;3.53;;;7.60;61.00;;;;;;4970874;28;20692;-76
2021/04/08 10:18:26;;;;;;;7.93;4.32;;;7.60;57.80;;;;;;4956037;28;20228;-76
2021/04/08 10:20:55;;;;;;;6.22;4.22;;;7.60;61.30;;;;;;4954290;28;20285;-76
2021/04/08 10:23:43;;;;;;;7.68;4.30;;;7.60;64.60;;;;;;4955371;29;20212;-76
2021/04/08 10:26:33;;;;;;;7.80;5.03;;;7.60;61.80;;;;;;4943842;28;20215;-76
2021/04/08 10:29:02;;;;;;;5.10;4.60;;;7.70;61.40;;;;;;4931391;28;20211;-76
2021/04/08 10:31:31;;;;;;;5.65;5.15;;;7.80;62.10;;;;;;4956178;28;20697;-76
2021/04/08 10:34:32;;;;;;;6.00;4.72;;;7.70;61.70;;;;;;4958291;28;20245;-76
2021/04/08 10:36:59;;;;;;;6.90;4.28;;;7.60;63.00;;;;;;4958125;28;20243;-76
2021/04/08 10:39:27;;;;;;;5.22;4.50;;;7.70;58.30;;;;;;4956047;28;20234;-76
2021/04/08 10:42:04;;;;;;;5.05;4.30;;;7.70;59.60;;;;;;4971375;28;20199;-76
2021/04/08 10:44:41;;;;;;;6.72;5.00;;;7.80;62.50;;;;;;4973784;28;20294;-76
2021/04/08 10:47:08;;;;;;;4.72;4.32;;;8.00;61.10;;;;;;4975537;28;20190;-76
2021/04/08 10:49:39;;;;;;;6.35;4.78;;;8.20;58.20;;;;;;4957799;28;20211;-76
2021/04/08 10:52:12;;;;;;;7.95;4.38;;;8.30;59.80;;;;;;4957901;28;20238;-76
2021/04/08 10:54:41;;;;;;;6.28;4.70;;;8.50;60.90;;;;;;4965485;28;20327;-76
2021/04/08 10:57:09;;;;;;;5.00;4.38;;;8.60;58.00;;;;;;4955096;28;20209;-76
2021/04/08 10:59:40;;;;;;;5.80;4.47;;;8.60;59.30;;;;;;4952434;28;20218;-76
2021/04/08 11:02:39;;;;;;;5.45;4.95;;;8.40;58.90;;;;;;4939363;29;20211;-76
2021/04/08 11:05:17;;;;;;;5.43;4.32;;;8.30;56.30;;;;;;4936380;28;20452;-76
2021/04/08 11:07:49;;;;;;;6.10;4.78;;;8.20;55.00;;;;;;4973271;28;20307;-76
2021/04/08 11:10:21;;;;;;;6.28;4.35;;;8.20;60.00;;;;;;4972161;28;20306;-76
2021/04/08 11:12:50;;;;;;;5.82;4.20;;;8.40;58.60;;;;;;4957979;28;20187;-76
2021/04/08 11:15:21;;;;;;;6.55;4.88;;;8.60;57.90;;;;;;4968947;28;20223;-76
2021/04/08 11:17:55;;;;;;;9.68;4.30;;;8.70;56.60;;;;;;4958218;28;20191;-76
2021/04/08 11:20:32;;;;;;;7.07;3.55;;;8.70;55.70;;;;;;4974786;28;20222;-76
2021/04/08 11:22:59;;;;;;;4.55;3.50;;;8.70;54.50;;;;;;4958911;28;20199;-76
2021/04/08 11:25:29;;;;;;;8.82;4.55;;;8.70;54.50;;;;;;4955167;28;20223;-76
2021/04/08 11:27:58;;;;;;;5.47;4.45;;;8.80;54.60;;;;;;4957975;28;20279;-76
2021/04/08 11:30:34;;;;;;;5.50;5.00;;;8.90;54.80;;;;;;4953538;28;20230;-73
2021/04/08 11:33:01;;;;;;;8.98;5.13;;;8.90;52.30;;;;;;4944971;28;20661;-76
2021/04/08 11:35:40;;;;;;;4.80;4.40;;;8.90;54.70;;;;;;4956306;28;20281;-76
2021/04/08 11:38:19;;;;;;;6.57;5.07;;;9.00;53.90;;;;;;4974873;28;20195;-76
2021/04/08 11:40:47;;;;;;;5.18;4.68;;;9.10;55.00;;;;;;4953525;28;20228;-76
2021/04/08 11:43:27;;;;;;;7.30;5.70;;;9.20;52.40;;;;;;4969707;28;20212;-76
2021/04/08 11:45:58;;;;;;;6.72;3.45;;;9.20;55.60;;;;;;4955337;28;20278;-76
2021/04/08 11:48:38;;;;;;;5.85;4.45;;;9.30;51.20;;;;;;4990168;28;20268;-76
2021/04/08 11:51:07;;;;;;;6.32;4.18;;;9.20;54.90;;;;;;4975910;28;20229;-76
2021/04/08 11:53:37;;;;;;;5.50;4.38;;;9.00;51.60;;;;;;4975150;28;20278;-76
2021/04/08 11:56:22;;;;;;;7.07;5.05;;;9.00;53.60;;;;;;4937030;28;20307;-76
2021/04/08 11:58:48;;;;;;;5.22;4.82;;;8.90;54.70;;;;;;4955691;29;20554;-76
2021/04/08 12:01:17;;;;;;;4.40;4.00;;;8.80;51.80;;;;;;4954414;28;20235;-76
2021/04/08 12:03:46;;;;;;;6.07;3.80;;;8.70;51.00;;;;;;4970500;28;20202;-76
2021/04/08 12:06:18;;;;;;;5.88;3.80;;;8.70;54.50;;;;;;4975665;28;20226;-76
2021/04/08 12:08:54;;;;;;;3.90;3.50;;;8.70;55.00;;;;;;4936691;29;20218;-76
2021/04/08 12:11:22;;;;;;;7.93;4.20;;;8.90;53.30;;;;;;4958054;28;20247;-76
2021/04/08 12:14:02;;;;;;;4.82;4.50;;;8.80;53.90;;;;;;4937932;29;20215;-76
2021/04/08 12:16:29;;;;;;;4.90;4.32;;;8.80;57.00;;;;;;4976000;28;20229;-76
2021/04/08 12:18:59;;;;;;;5.35;4.78;;;8.90;55.80;;;;;;4974039;28;20218;-76
2021/04/08 12:21:28;;;;;;;5.00;4.50;;;9.00;54.80;;;;;;4973257;28;20223;-76
2021/04/08 12:24:07;;;;;;;6.15;4.55;;;8.90;51.30;;;;;;4952504;28;20230;-76
2021/04/08 12:26:40;;;;;;;6.55;4.50;;;8.80;55.60;;;;;;4942790;28;20216;-76
2021/04/08 12:29:07;;;;;;;7.13;4.93;;;8.90;54.70;;;;;;4971726;28;20211;-76
2021/04/08 12:31:34;;;;;;;5.88;5.30;;;8.80;54.80;;;;;;4938743;28;20265;-76
2021/04/08 12:34:02;;;;;;;5.70;4.72;;;8.90;56.40;;;;;;4956601;28;20239;-76
2021/04/08 12:36:30;;;;;;;6.40;5.80;;;8.80;59.50;;;;;;4939004;28;20223;-76
2021/04/08 12:38:58;;;;;;;6.50;5.15;;;8.90;57.50;;;;;;4955501;28;20241;-76
2021/04/08 12:41:25;;;;;;;6.07;4.70;;;9.00;57.20;;;;;;4955194;28;20215;-76
2021/04/08 12:43:52;;;;;;;5.75;5.13;;;9.10;54.90;;;;;;4955497;28;20581;-76
2021/04/08 12:46:18;;;;;;;5.82;5.03;;;9.10;53.40;;;;;;4936195;28;20278;-76
2021/04/08 12:48:45;;;;;;;7.57;5.45;;;9.00;55.60;;;;;;4973790;28;20218;-76
2021/04/08 12:51:12;;;;;;;7.88;5.28;;;9.00;54.80;;;;;;4938801;28;20229;-76
2021/04/08 12:53:39;;;;;;;8.18;5.93;;;9.00;53.50;;;;;;4960454;28;20216;-76
2021/04/08 12:56:05;;;;;;;7.40;5.40;;;9.00;57.60;;;;;;4936217;28;20294;-76
2021/04/08 12:58:32;;;;;;;9.05;6.20;;;9.00;56.10;;;;;;4964637;28;20277;-76
2021/04/08 13:00:58;;;;;;;6.60;6.00;;;9.20;57.50;;;;;;4942567;28;20678;-76
2021/04/08 13:03:28;;;;;;;7.07;6.45;;;9.30;55.90;;;;;;4953840;29;20212;-76
2021/04/08 13:05:55;;;;;;;7.50;6.45;;;9.40;53.50;;;;;;4953624;28;20717;-76
2021/04/08 13:08:21;;;;;;;8.15;6.13;;;9.50;53.40;;;;;;4946107;29;20229;-76
2021/04/08 13:10:48;;;;;;;7.55;6.85;;;9.60;55.20;;;;;;4948776;28;20227;-76
2021/04/08 13:13:18;;;;;;;7.97;7.15;;;9.60;55.30;;;;;;4956698;28;20229;-76
2021/04/08 13:15:45;;;;;;;8.30;7.53;;;9.60;54.30;;;;;;4969592;28;20232;-76